createdAt,value
2022-09-28T00:00:47.100Z,9.10
2022-09-28T00:03:13.864Z,9.10
2022-09-28T00:05:40.571Z,9.10
2022-09-28T00:08:07.232Z,9.10
2022-09-28T00:10:33.879Z,9.10
2022-09-28T00:13:01.426Z,9.10
2022-09-28T00:15:28.052Z,9.00
2022-09-28T00:17:54.714Z,9.00
2022-09-28T00:20:22.680Z,9.10
2022-09-28T00:22:49.363Z,9.10
2022-09-28T00:25:16.983Z,9.10
2022-09-28T00:27:49.214Z,9.10
2022-09-28T00:30:16.444Z,9.10
2022-09-28T00:32:43.085Z,9.10
2022-09-28T00:35:09.804Z,9.10
2022-09-28T00:37:36.440Z,9.10
2022-09-28T00:40:03.246Z,9.10
2022-09-28T00:42:29.891Z,9.10
2022-09-28T00:44:57.348Z,9.10
2022-09-28T00:47:23.990Z,9.10
2022-09-28T00:49:50.954Z,9.10
2022-09-28T00:52:20.027Z,9.10
2022-09-28T00:54:47.755Z,9.10
2022-09-28T00:57:14.788Z,9.00
2022-09-28T00:59:41.596Z,9.00
2022-09-28T01:02:10.442Z,9.00
2022-09-28T01:04:38.068Z,9.00
2022-09-28T01:07:04.791Z,9.00
2022-09-28T01:09:32.451Z,9.00
2022-09-28T01:11:59.091Z,9.00
2022-09-28T01:14:25.788Z,9.00
2022-09-28T01:17:14.622Z,8.90
2022-09-28T01:19:48.809Z,8.90
2022-09-28T01:22:37.490Z,8.80
2022-09-28T01:25:22.595Z,8.80
2022-09-28T01:27:54.467Z,8.80
2022-09-28T01:30:21.535Z,8.70
2022-09-28T01:32:55.794Z,8.70
2022-09-28T01:35:29.990Z,8.70
2022-09-28T01:38:02.360Z,8.60
2022-09-28T01:40:30.032Z,8.60
2022-09-28T01:43:00.243Z,8.60
2022-09-28T01:45:29.096Z,8.50
2022-09-28T01:47:57.987Z,8.50
2022-09-28T01:50:25.465Z,8.50
2022-09-28T01:52:59.613Z,8.60
2022-09-28T01:55:26.292Z,8.60
2022-09-28T01:57:55.927Z,8.60
2022-09-28T02:00:23.716Z,8.70
2022-09-28T02:02:57.128Z,8.70
2022-09-28T02:05:28.328Z,8.70
2022-09-28T02:08:16.492Z,8.80
2022-09-28T02:11:06.462Z,8.80
2022-09-28T02:13:34.767Z,8.80
2022-09-28T02:16:05.070Z,8.90
2022-09-28T02:18:31.941Z,8.90
2022-09-28T02:21:01.090Z,8.90
2022-09-28T02:23:29.202Z,8.90
2022-09-28T02:26:03.246Z,8.90
2022-09-28T02:28:30.103Z,8.90
2022-09-28T02:30:57.084Z,9.00
2022-09-28T02:33:30.149Z,9.00
2022-09-28T02:35:58.367Z,9.00
2022-09-28T02:38:24.995Z,9.00
2022-09-28T02:41:03.820Z,9.00
2022-09-28T02:43:49.288Z,9.00
2022-09-28T02:46:25.132Z,9.00
2022-09-28T02:49:04.985Z,8.90
2022-09-28T02:51:40.909Z,8.90
2022-09-28T02:54:07.496Z,8.80
2022-09-28T02:56:46.299Z,8.80
2022-09-28T02:59:18.614Z,8.80
2022-09-28T03:01:58.773Z,8.70
2022-09-28T03:04:45.709Z,8.70
2022-09-28T03:07:24.334Z,8.70
2022-09-28T03:10:08.372Z,8.70
2022-09-28T03:12:36.433Z,8.70
2022-09-28T03:15:07.427Z,8.70
2022-09-28T03:17:34.095Z,8.60
2022-09-28T03:20:00.871Z,8.60
2022-09-28T03:22:27.508Z,8.50
2022-09-28T03:24:54.142Z,8.40
2022-09-28T03:27:20.817Z,8.40
2022-09-28T03:29:47.432Z,8.30
2022-09-28T03:32:14.105Z,8.30
2022-09-28T03:34:40.712Z,8.20
2022-09-28T03:37:07.343Z,8.10
2022-09-28T03:39:33.980Z,8.10
2022-09-28T03:42:00.930Z,8.10
2022-09-28T03:44:27.704Z,8.00
2022-09-28T03:46:54.338Z,8.00
2022-09-28T03:49:21.032Z,8.00
2022-09-28T03:51:47.864Z,8.00
2022-09-28T03:54:14.488Z,8.00
2022-09-28T03:56:41.172Z,8.10
2022-09-28T03:59:07.811Z,8.10
2022-09-28T04:01:34.517Z,8.20
2022-09-28T04:04:01.289Z,8.10
2022-09-28T04:06:28.019Z,8.20
2022-09-28T04:08:54.637Z,8.20
2022-09-28T04:11:21.274Z,8.20
2022-09-28T04:13:49.048Z,8.20
2022-09-28T04:16:16.143Z,8.20
2022-09-28T04:18:42.858Z,8.30
2022-09-28T04:21:13.019Z,8.30
2022-09-28T04:23:40.074Z,8.30
2022-09-28T04:26:08.073Z,8.30
2022-09-28T04:28:53.458Z,8.30
2022-09-28T04:31:21.759Z,8.40
2022-09-28T04:33:48.540Z,8.40
2022-09-28T04:36:15.160Z,8.40
2022-09-28T04:38:52.696Z,8.40
2022-09-28T04:41:22.165Z,8.40
2022-09-28T04:43:49.220Z,8.40
2022-09-28T04:46:15.922Z,8.40
2022-09-28T04:48:42.579Z,8.40
2022-09-28T04:51:09.468Z,8.40
2022-09-28T04:53:36.150Z,8.40
2022-09-28T04:56:04.723Z,8.50
2022-09-28T04:58:31.796Z,8.50
2022-09-28T05:00:59.982Z,8.50
2022-09-28T05:03:26.828Z,8.40
2022-09-28T05:05:53.512Z,8.50
2022-09-28T05:08:20.376Z,8.40
2022-09-28T05:10:47.023Z,8.40
2022-09-28T05:13:14.331Z,8.50
2022-09-28T05:15:41.581Z,8.40
2022-09-28T05:18:08.545Z,8.50
2022-09-28T05:20:39.758Z,8.50
2022-09-28T05:23:06.382Z,8.50
2022-09-28T05:25:34.686Z,8.50
2022-09-28T05:28:03.323Z,8.50
2022-09-28T05:30:29.954Z,8.50
2022-09-28T05:32:56.907Z,8.50
2022-09-28T05:35:23.635Z,8.50
2022-09-28T05:37:50.351Z,8.60
2022-09-28T05:40:17.374Z,8.60
2022-09-28T05:42:44.107Z,8.60
2022-09-28T05:45:10.844Z,8.60
2022-09-28T05:47:38.876Z,8.50
2022-09-28T05:50:06.333Z,8.60
2022-09-28T05:52:32.959Z,8.60
2022-09-28T05:54:59.638Z,8.60
2022-09-28T05:57:26.256Z,8.60
2022-09-28T05:59:52.867Z,8.60
2022-09-28T06:02:19.626Z,8.60
2022-09-28T06:04:48.311Z,8.60
2022-09-28T06:07:15.145Z,8.60
2022-09-28T06:09:41.907Z,8.60
2022-09-28T06:12:08.602Z,8.60
2022-09-28T06:14:35.398Z,8.60
2022-09-28T06:17:02.468Z,8.60
2022-09-28T06:19:29.232Z,8.60
2022-09-28T06:21:58.421Z,8.60
2022-09-28T06:24:26.014Z,8.60
2022-09-28T06:26:52.649Z,8.60
2022-09-28T06:29:19.974Z,8.60
2022-09-28T06:31:47.266Z,8.60
2022-09-28T06:34:15.845Z,8.60
2022-09-28T06:36:42.717Z,8.60
2022-09-28T06:39:09.358Z,8.60
2022-09-28T06:41:36.042Z,8.60
2022-09-28T06:44:03.731Z,8.70
2022-09-28T06:46:31.435Z,8.70
2022-09-28T06:48:58.585Z,8.70
2022-09-28T06:51:25.228Z,8.80
2022-09-28T06:53:53.886Z,8.80
2022-09-28T06:56:21.068Z,8.90
2022-09-28T06:58:48.048Z,8.90
2022-09-28T07:01:14.764Z,8.90
2022-09-28T07:03:41.513Z,9.00
2022-09-28T07:06:10.154Z,9.00
2022-09-28T07:08:36.964Z,9.00
2022-09-28T07:11:07.333Z,9.00
2022-09-28T07:13:49.594Z,9.00
2022-09-28T07:16:17.397Z,9.10
2022-09-28T07:18:44.303Z,9.10
2022-09-28T07:21:20.180Z,9.10
2022-09-28T07:23:54.291Z,9.10
2022-09-28T07:26:24.011Z,9.20
2022-09-28T07:28:51.594Z,9.20
2022-09-28T07:31:18.259Z,9.20
2022-09-28T07:33:47.095Z,9.20
2022-09-28T07:36:14.175Z,9.30
2022-09-28T07:38:41.408Z,9.30
2022-09-28T07:41:11.466Z,9.30
2022-09-28T07:43:39.980Z,9.40
2022-09-28T07:46:12.810Z,9.40
2022-09-28T07:48:40.992Z,9.40
2022-09-28T07:51:08.107Z,9.50
2022-09-28T07:53:34.812Z,9.60
2022-09-28T07:56:06.217Z,9.60
2022-09-28T07:58:33.957Z,9.60
2022-09-28T08:01:04.415Z,9.60
2022-09-28T08:03:31.108Z,9.60
2022-09-28T08:05:58.777Z,9.70
2022-09-28T08:08:25.516Z,9.70
2022-09-28T08:10:53.143Z,9.80
2022-09-28T08:13:22.232Z,9.80
2022-09-28T08:15:51.756Z,9.90
2022-09-28T08:18:18.655Z,9.90
2022-09-28T08:21:04.002Z,10.00
2022-09-28T08:23:30.903Z,10.00
2022-09-28T08:25:58.737Z,10.00
2022-09-28T08:28:25.635Z,10.10
2022-09-28T08:30:52.692Z,10.10
2022-09-28T08:33:21.387Z,10.20
2022-09-28T08:35:48.267Z,10.30
2022-09-28T08:38:15.316Z,10.30
2022-09-28T08:41:04.306Z,10.30
2022-09-28T08:43:52.409Z,10.30
2022-09-28T08:46:23.892Z,10.30
2022-09-28T08:49:20.604Z,10.30
2022-09-28T08:51:52.863Z,10.40
2022-09-28T08:54:39.068Z,10.40
2022-09-28T08:57:11.140Z,10.50
2022-09-28T08:59:44.763Z,10.50
2022-09-28T09:02:17.899Z,10.60
2022-09-28T09:04:44.790Z,10.60
2022-09-28T09:07:19.273Z,10.70
2022-09-28T09:09:48.717Z,10.70
2022-09-28T09:12:30.653Z,10.80
2022-09-28T09:15:09.736Z,10.90
2022-09-28T09:17:56.453Z,11.00
2022-09-28T09:20:26.265Z,11.10
2022-09-28T09:23:00.086Z,11.00
2022-09-28T09:25:28.492Z,10.80
2022-09-28T09:28:04.360Z,10.50
2022-09-28T09:30:43.809Z,10.30
2022-09-28T09:33:10.451Z,10.20
2022-09-28T09:35:49.420Z,10.00
2022-09-28T09:38:27.828Z,9.90
2022-09-28T09:41:15.475Z,9.90
2022-09-28T09:43:45.145Z,9.90
2022-09-28T09:46:27.480Z,9.90
2022-09-28T09:49:04.534Z,10.00
2022-09-28T09:51:38.932Z,10.00
2022-09-28T09:54:10.409Z,10.10
2022-09-28T09:56:40.346Z,10.20
2022-09-28T09:59:18.999Z,10.20
2022-09-28T10:01:46.334Z,10.30
2022-09-28T10:04:35.038Z,10.40
2022-09-28T10:07:04.409Z,10.40
2022-09-28T10:09:34.747Z,10.50
2022-09-28T10:12:01.906Z,10.60
2022-09-28T10:14:28.554Z,10.60
2022-09-28T10:16:56.743Z,10.60
2022-09-28T10:19:30.627Z,10.50
2022-09-28T10:21:59.980Z,10.60
2022-09-28T10:24:26.575Z,10.50
2022-09-28T10:26:54.548Z,10.60
2022-09-28T10:29:23.072Z,10.60
2022-09-28T10:31:50.516Z,10.70
2022-09-28T10:34:18.941Z,10.70
2022-09-28T10:36:52.233Z,10.70
2022-09-28T10:39:24.303Z,10.80
2022-09-28T10:41:51.772Z,10.90
2022-09-28T10:44:19.259Z,11.00
2022-09-28T10:46:55.606Z,11.00
2022-09-28T10:49:22.661Z,11.00
2022-09-28T10:51:51.606Z,11.10
2022-09-28T10:54:22.858Z,11.20
2022-09-28T10:56:50.001Z,11.40
2022-09-28T10:59:43.022Z,11.50
2022-09-28T11:02:16.970Z,11.60
2022-09-28T11:04:50.005Z,11.90
2022-09-28T11:07:20.966Z,12.00
2022-09-28T11:09:48.882Z,12.00
2022-09-28T11:12:17.758Z,12.00
2022-09-28T11:14:44.648Z,12.10
2022-09-28T11:17:17.471Z,12.30
2022-09-28T11:19:47.469Z,12.50
2022-09-28T11:22:21.528Z,12.60
2022-09-28T11:24:48.772Z,12.70
2022-09-28T11:27:33.825Z,12.60
2022-09-28T11:30:00.577Z,12.60
2022-09-28T11:32:32.054Z,12.50
2022-09-28T11:35:00.386Z,12.40
2022-09-28T11:37:35.577Z,12.40
2022-09-28T11:40:05.712Z,12.20
2022-09-28T11:42:55.785Z,12.10
2022-09-28T11:45:40.895Z,12.00
2022-09-28T11:48:27.928Z,12.20
2022-09-28T11:51:03.820Z,12.40
2022-09-28T11:53:36.794Z,12.50
2022-09-28T11:56:18.875Z,12.70
2022-09-28T11:58:55.685Z,12.80
2022-09-28T12:01:25.271Z,12.80
2022-09-28T12:03:54.728Z,12.80
2022-09-28T12:06:29.784Z,12.80
2022-09-28T12:08:58.448Z,12.80
2022-09-28T12:11:32.919Z,12.80
2022-09-28T12:14:01.545Z,12.80
2022-09-28T12:19:21.005Z,12.90
2022-09-28T12:21:47.613Z,13.00
2022-09-28T12:24:24.724Z,13.10
2022-09-28T12:26:51.345Z,13.10
2022-09-28T12:29:20.266Z,13.20
2022-09-28T12:31:46.965Z,13.20
2022-09-28T12:34:13.807Z,13.20
2022-09-28T12:36:55.125Z,13.20
2022-09-28T12:39:57.074Z,13.10
2022-09-28T12:42:33.352Z,13.10
2022-09-28T12:45:12.398Z,13.10
2022-09-28T12:47:55.920Z,13.10
2022-09-28T12:50:44.774Z,13.10
2022-09-28T12:53:25.827Z,13.00
2022-09-28T12:56:06.279Z,12.90
2022-09-28T12:58:52.223Z,12.80
2022-09-28T13:01:25.195Z,12.70
2022-09-28T13:04:00.498Z,12.60
2022-09-28T13:06:38.007Z,12.50
2022-09-28T13:09:20.295Z,12.40
2022-09-28T13:12:14.072Z,12.30
2022-09-28T13:14:59.703Z,12.10
2022-09-28T13:17:35.683Z,12.00
2022-09-28T13:20:17.888Z,11.90
2022-09-28T13:22:49.549Z,11.80
2022-09-28T13:25:18.189Z,11.70
2022-09-28T13:27:56.652Z,11.50
2022-09-28T13:30:23.348Z,11.30
2022-09-28T13:32:50.379Z,11.30
2022-09-28T13:35:20.935Z,11.30
2022-09-28T13:37:48.621Z,11.30
2022-09-28T13:40:15.283Z,11.40
2022-09-28T13:42:44.986Z,11.40
2022-09-28T13:45:21.012Z,11.60
2022-09-28T13:48:00.298Z,11.60
2022-09-28T13:50:32.080Z,11.50
2022-09-28T13:53:11.361Z,11.50
2022-09-28T13:55:58.440Z,11.40
2022-09-28T13:58:28.154Z,11.30
2022-09-28T14:01:13.987Z,11.30
2022-09-28T14:03:59.742Z,11.20
2022-09-28T14:06:27.745Z,11.20
2022-09-28T14:09:12.838Z,11.20
2022-09-28T14:11:56.437Z,11.20
2022-09-28T14:14:29.075Z,11.20
2022-09-28T14:17:15.431Z,11.20
2022-09-28T14:19:42.496Z,11.20
2022-09-28T14:22:12.117Z,11.30
2022-09-28T14:24:47.843Z,11.20
2022-09-28T14:27:14.730Z,11.30
2022-09-28T14:29:41.370Z,11.20
2022-09-28T14:32:08.001Z,11.20
2022-09-28T14:34:40.423Z,11.20
2022-09-28T14:37:52.133Z,11.10
2022-09-28T14:40:48.666Z,11.10
2022-09-28T14:43:34.796Z,11.10
2022-09-28T14:46:23.270Z,11.10
2022-09-28T14:48:51.019Z,11.00
2022-09-28T14:51:38.025Z,11.00
2022-09-28T14:54:05.806Z,10.90
2022-09-28T14:56:59.047Z,10.90
2022-09-28T14:59:27.300Z,10.80
2022-09-28T15:02:05.721Z,10.80
2022-09-28T15:04:34.484Z,10.80
2022-09-28T15:07:01.392Z,10.70
2022-09-28T15:09:35.636Z,10.70
2022-09-28T15:12:09.787Z,10.70
2022-09-28T15:14:43.095Z,10.60
2022-09-28T15:17:11.156Z,10.60
2022-09-28T15:19:53.363Z,10.60
2022-09-28T15:22:20.768Z,10.50
2022-09-28T15:24:59.988Z,10.50
2022-09-28T15:27:38.345Z,10.40
2022-09-28T15:30:23.267Z,10.40
2022-09-28T15:32:50.587Z,10.40
2022-09-28T15:35:27.281Z,10.30
2022-09-28T15:37:55.073Z,10.30
2022-09-28T15:40:29.069Z,10.30
2022-09-28T15:42:59.200Z,10.30
2022-09-28T15:45:26.866Z,10.20
2022-09-28T15:47:58.435Z,10.20
2022-09-28T15:50:28.984Z,10.20
2022-09-28T15:52:57.616Z,10.10
2022-09-28T15:55:25.859Z,10.10
2022-09-28T15:58:06.497Z,10.10
2022-09-28T16:00:33.717Z,10.00
2022-09-28T16:03:19.025Z,10.00
2022-09-28T16:06:06.132Z,10.00
2022-09-28T16:08:33.944Z,9.90
2022-09-28T16:11:08.246Z,9.90
2022-09-28T16:13:37.636Z,9.80
2022-09-28T16:16:05.950Z,9.80
2022-09-28T16:18:33.949Z,9.80
2022-09-28T16:21:25.892Z,9.70
2022-09-28T16:23:56.327Z,9.70
2022-09-28T16:26:36.744Z,9.70
2022-09-28T16:29:26.919Z,9.60
2022-09-28T16:31:54.979Z,9.60
2022-09-28T16:34:28.281Z,9.60
2022-09-28T16:36:56.589Z,9.50
2022-09-28T16:39:25.616Z,9.50
2022-09-28T16:41:57.348Z,9.50
2022-09-28T16:44:26.690Z,9.50
2022-09-28T16:46:56.456Z,9.40
2022-09-28T16:49:24.441Z,9.40
2022-09-28T16:51:51.682Z,9.40
2022-09-28T16:54:40.604Z,9.30
2022-09-28T16:57:19.274Z,9.30
2022-09-28T16:59:53.327Z,9.30
2022-09-28T17:02:45.649Z,9.20
2022-09-28T17:05:28.066Z,9.20
2022-09-28T17:08:05.592Z,9.20
2022-09-28T17:11:02.188Z,9.20
2022-09-28T17:13:44.386Z,9.20
2022-09-28T17:16:50.996Z,9.20
2022-09-28T17:22:14.188Z,9.20
2022-09-28T17:24:46.073Z,9.10
2022-09-28T17:27:23.839Z,9.10
2022-09-28T17:32:34.795Z,9.10
2022-09-28T17:35:23.680Z,9.10
2022-09-28T17:37:53.014Z,9.10
2022-09-28T17:40:22.826Z,9.10
2022-09-28T17:42:50.757Z,9.10
2022-09-28T17:45:20.830Z,9.00
2022-09-28T17:47:52.183Z,9.00
2022-09-28T17:50:25.908Z,9.00
2022-09-28T17:53:08.471Z,9.00
2022-09-28T17:55:39.659Z,9.00
2022-09-28T17:58:33.583Z,9.00
2022-09-28T18:01:05.011Z,8.90
2022-09-28T18:03:33.727Z,8.90
2022-09-28T18:06:04.513Z,8.90
2022-09-28T18:08:33.007Z,8.90
2022-09-28T18:11:04.437Z,8.90
2022-09-28T18:13:33.902Z,8.80
2022-09-28T18:16:05.638Z,8.80
2022-09-28T18:18:39.764Z,8.80
2022-09-28T18:21:08.531Z,8.80
2022-09-28T18:23:37.803Z,8.80
2022-09-28T18:26:14.432Z,8.80
2022-09-28T18:28:44.349Z,8.80
2022-09-28T18:31:14.590Z,8.80
2022-09-28T18:33:53.690Z,8.80
2022-09-28T18:36:29.299Z,8.80
2022-09-28T18:39:03.875Z,8.80
2022-09-28T18:41:32.386Z,8.80
2022-09-28T18:44:06.329Z,8.80
2022-09-28T18:49:37.379Z,8.70
2022-09-28T18:52:22.017Z,8.70
2022-09-28T18:54:56.986Z,8.60
2022-09-28T19:00:14.733Z,8.50
2022-09-28T19:02:55.041Z,8.50
2022-09-28T19:05:38.695Z,8.40
2022-09-28T19:08:27.452Z,8.40
2022-09-28T19:14:01.520Z,8.30
2022-09-28T19:16:36.971Z,8.30
2022-09-28T19:19:07.660Z,8.30
2022-09-28T19:21:40.271Z,8.30
2022-09-28T19:24:13.579Z,8.30
2022-09-28T19:26:51.529Z,8.30
2022-09-28T19:29:33.794Z,8.30
2022-09-28T19:34:51.761Z,8.30
2022-09-28T19:37:25.030Z,8.30
2022-09-28T19:40:08.568Z,8.30
2022-09-28T19:42:51.779Z,8.30
2022-09-28T19:45:28.862Z,8.30
2022-09-28T19:48:11.949Z,8.30
2022-09-28T19:50:49.710Z,8.30
2022-09-28T19:53:19.373Z,8.30
2022-09-28T19:55:55.311Z,8.30
2022-09-28T19:58:27.172Z,8.30
2022-09-28T20:03:41.436Z,8.30
2022-09-28T20:06:17.198Z,8.30
2022-09-28T20:08:48.841Z,8.40
2022-09-28T20:11:22.340Z,8.40
2022-09-28T20:14:00.808Z,8.40
2022-09-28T20:16:29.903Z,8.40
2022-09-28T20:19:04.182Z,8.40
2022-09-28T20:21:38.435Z,8.40
2022-09-28T20:24:07.515Z,8.40
2022-09-28T20:26:39.235Z,8.40
2022-09-28T20:29:13.630Z,8.40
2022-09-28T20:31:44.192Z,8.40
2022-09-28T20:34:14.508Z,8.40
2022-09-28T20:36:44.710Z,8.40
2022-09-28T20:39:13.776Z,8.40
2022-09-28T20:41:48.793Z,8.40
2022-09-28T20:44:30.908Z,8.40
2022-09-28T20:47:23.038Z,8.40
2022-09-28T20:50:00.338Z,8.30
2022-09-28T20:52:31.631Z,8.30
2022-09-28T20:55:17.012Z,8.30
2022-09-28T20:57:58.490Z,8.30
2022-09-28T21:00:42.563Z,8.30
2022-09-28T21:03:20.473Z,8.30
2022-09-28T21:05:58.502Z,8.40
2022-09-28T21:08:36.446Z,8.30
2022-09-28T21:13:58.091Z,8.30
2022-09-28T21:16:32.127Z,8.40
2022-09-28T21:19:08.213Z,8.30
2022-09-28T21:27:09.336Z,8.40
2022-09-28T21:29:45.112Z,8.30
2022-09-28T21:32:20.840Z,8.30
2022-09-28T21:35:03.674Z,8.30
2022-09-28T21:37:42.885Z,8.30
2022-09-28T21:40:21.500Z,8.30
2022-09-28T21:42:51.061Z,8.30
2022-09-28T21:45:29.141Z,8.30
2022-09-28T21:48:08.797Z,8.30
2022-09-28T21:53:41.905Z,8.30
2022-09-28T21:59:01.795Z,8.30
2022-09-28T22:04:36.518Z,8.30
2022-09-28T22:07:27.013Z,8.30
2022-09-28T22:10:16.334Z,8.30
2022-09-28T22:15:54.536Z,8.30
2022-09-28T22:18:53.073Z,8.30
2022-09-28T22:21:30.901Z,8.20
2022-09-28T22:24:13.510Z,8.20
2022-09-28T22:26:49.071Z,8.20
2022-09-28T22:32:15.091Z,8.20
2022-09-28T22:34:50.781Z,8.10
2022-09-28T22:37:31.424Z,8.10
2022-09-28T22:40:07.216Z,8.10
2022-09-28T22:42:35.900Z,8.10
2022-09-28T22:45:03.875Z,8.10
2022-09-28T22:47:37.660Z,8.10
2022-09-28T22:50:18.496Z,8.10
2022-09-28T22:52:56.587Z,8.10
2022-09-28T22:55:30.420Z,8.10
2022-09-28T22:58:04.724Z,8.10
2022-09-28T23:00:37.145Z,8.10
2022-09-28T23:03:14.713Z,8.10
2022-09-28T23:05:44.594Z,8.10
2022-09-28T23:08:14.199Z,8.10
2022-09-28T23:10:51.243Z,8.10
2022-09-28T23:13:21.932Z,8.10
2022-09-28T23:16:03.274Z,8.10
2022-09-28T23:18:37.261Z,8.10
2022-09-28T23:21:10.094Z,8.10
2022-09-28T23:23:45.434Z,8.10
2022-09-28T23:26:30.565Z,8.10
2022-09-28T23:29:05.651Z,8.10
2022-09-28T23:31:52.906Z,8.10
2022-09-28T23:34:28.264Z,8.20
2022-09-28T23:37:02.425Z,8.20
